sensor_id;sensor_type;location;lat;lon;timestamp;temperature;humidity
21582;DHT22;10952;50.836;4.348;2023-04-03T00:00:40;6.80;99.90
21582;DHT22;10952;50.836;4.348;2023-04-03T00:03:06;6.70;99.90
21582;DHT22;10952;50.836;4.348;2023-04-03T00:05:32;6.60;99.90
21582;DHT22;10952;50.836;4.348;2023-04-03T00:07:58;6.60;99.90
21582;DHT22;10952;50.836;4.348;2023-04-03T00:10:24;6.60;99.90
21582;DHT22;10952;50.836;4.348;2023-04-03T00:12:49;6.60;99.90
21582;DHT22;10952;50.836;4.348;2023-04-03T00:15:15;6.60;99.90
21582;DHT22;10952;50.836;4.348;2023-04-03T00:17:41;6.60;99.90
21582;DHT22;10952;50.836;4.348;2023-04-03T00:20:07;6.70;99.90
21582;DHT22;10952;50.836;4.348;2023-04-03T00:22:33;6.70;99.90
21582;DHT22;10952;50.836;4.348;2023-04-03T00:24:58;6.70;99.90
21582;DHT22;10952;50.836;4.348;2023-04-03T00:27:24;6.70;99.90
21582;DHT22;10952;50.836;4.348;2023-04-03T00:29:50;6.70;99.90
21582;DHT22;10952;50.836;4.348;2023-04-03T00:32:15;6.80;99.90
21582;DHT22;10952;50.836;4.348;2023-04-03T00:34:41;6.70;99.90
21582;DHT22;10952;50.836;4.348;2023-04-03T00:37:07;6.70;99.90
21582;DHT22;10952;50.836;4.348;2023-04-03T00:39:32;6.60;99.90
21582;DHT22;10952;50.836;4.348;2023-04-03T00:41:58;6.70;99.90
21582;DHT22;10952;50.836;4.348;2023-04-03T00:46:59;6.60;99.90
21582;DHT22;10952;50.836;4.348;2023-04-03T00:49:25;6.60;99.90
21582;DHT22;10952;50.836;4.348;2023-04-03T00:51:52;6.60;99.90
21582;DHT22;10952;50.836;4.348;2023-04-03T00:54:18;6.50;99.90
21582;DHT22;10952;50.836;4.348;2023-04-03T00:56:44;6.40;99.90
21582;DHT22;10952;50.836;4.348;2023-04-03T00:59:14;6.40;99.90
21582;DHT22;10952;50.836;4.348;2023-04-03T01:01:40;6.40;99.90
21582;DHT22;10952;50.836;4.348;2023-04-03T01:04:27;6.40;99.90
21582;DHT22;10952;50.836;4.348;2023-04-03T01:06:56;6.30;99.90
21582;DHT22;10952;50.836;4.348;2023-04-03T01:09:23;6.30;99.90
21582;DHT22;10952;50.836;4.348;2023-04-03T01:11:49;6.40;99.90
21582;DHT22;10952;50.836;4.348;2023-04-03T01:14:14;6.40;99.90
21582;DHT22;10952;50.836;4.348;2023-04-03T01:16:40;6.30;99.90
21582;DHT22;10952;50.836;4.348;2023-04-03T01:19:10;6.20;99.90
21582;DHT22;10952;50.836;4.348;2023-04-03T01:26:48;6.10;99.90
21582;DHT22;10952;50.836;4.348;2023-04-03T01:29:14;6.10;99.90
21582;DHT22;10952;50.836;4.348;2023-04-03T01:31:51;6.10;99.90
21582;DHT22;10952;50.836;4.348;2023-04-03T01:34:18;6.00;99.90
21582;DHT22;10952;50.836;4.348;2023-04-03T01:36:44;6.00;99.90
21582;DHT22;10952;50.836;4.348;2023-04-03T01:39:10;6.00;99.90
21582;DHT22;10952;50.836;4.348;2023-04-03T01:41:36;5.90;99.90
21582;DHT22;10952;50.836;4.348;2023-04-03T01:44:02;6.00;99.90
21582;DHT22;10952;50.836;4.348;2023-04-03T01:46:29;5.90;99.90
21582;DHT22;10952;50.836;4.348;2023-04-03T01:48:55;5.90;99.90
21582;DHT22;10952;50.836;4.348;2023-04-03T01:51:21;6.00;99.90
21582;DHT22;10952;50.836;4.348;2023-04-03T01:53:46;5.90;99.90
21582;DHT22;10952;50.836;4.348;2023-04-03T01:56:12;6.00;99.90
21582;DHT22;10952;50.836;4.348;2023-04-03T01:58:37;6.00;99.90
21582;DHT22;10952;50.836;4.348;2023-04-03T02:01:04;6.10;99.90
21582;DHT22;10952;50.836;4.348;2023-04-03T02:03:29;6.00;99.90
21582;DHT22;10952;50.836;4.348;2023-04-03T02:05:56;6.10;99.90
21582;DHT22;10952;50.836;4.348;2023-04-03T02:08:21;6.00;99.90
21582;DHT22;10952;50.836;4.348;2023-04-03T02:10:48;5.90;99.90
21582;DHT22;10952;50.836;4.348;2023-04-03T02:13:15;5.90;99.90
21582;DHT22;10952;50.836;4.348;2023-04-03T02:15:41;5.80;99.90
21582;DHT22;10952;50.836;4.348;2023-04-03T02:18:07;5.80;99.90
21582;DHT22;10952;50.836;4.348;2023-04-03T02:20:32;5.80;99.90
21582;DHT22;10952;50.836;4.348;2023-04-03T02:22:59;5.80;99.90
21582;DHT22;10952;50.836;4.348;2023-04-03T02:25:25;5.70;99.90
21582;DHT22;10952;50.836;4.348;2023-04-03T02:27:51;5.70;99.90
21582;DHT22;10952;50.836;4.348;2023-04-03T02:30:17;5.70;99.90
21582;DHT22;10952;50.836;4.348;2023-04-03T02:32:43;5.60;99.90
21582;DHT22;10952;50.836;4.348;2023-04-03T02:35:10;5.70;99.90
21582;DHT22;10952;50.836;4.348;2023-04-03T02:37:36;5.60;99.90
21582;DHT22;10952;50.836;4.348;2023-04-03T02:40:02;5.70;99.90
21582;DHT22;10952;50.836;4.348;2023-04-03T02:42:28;5.60;99.90
21582;DHT22;10952;50.836;4.348;2023-04-03T02:44:54;5.50;99.90
21582;DHT22;10952;50.836;4.348;2023-04-03T02:47:20;5.50;99.90
21582;DHT22;10952;50.836;4.348;2023-04-03T02:49:46;5.50;99.90
21582;DHT22;10952;50.836;4.348;2023-04-03T02:52:13;5.50;99.90
21582;DHT22;10952;50.836;4.348;2023-04-03T02:54:39;5.40;99.90
21582;DHT22;10952;50.836;4.348;2023-04-03T02:57:04;5.40;99.90
21582;DHT22;10952;50.836;4.348;2023-04-03T02:59:30;5.30;99.90
21582;DHT22;10952;50.836;4.348;2023-04-03T03:01:56;5.40;99.90
21582;DHT22;10952;50.836;4.348;2023-04-03T03:04:22;5.40;99.90
21582;DHT22;10952;50.836;4.348;2023-04-03T03:06:47;5.40;99.90
21582;DHT22;10952;50.836;4.348;2023-04-03T03:09:13;5.30;99.90
21582;DHT22;10952;50.836;4.348;2023-04-03T03:11:40;5.20;99.90
21582;DHT22;10952;50.836;4.348;2023-04-03T03:14:05;5.20;99.90
21582;DHT22;10952;50.836;4.348;2023-04-03T03:16:31;5.20;99.90
21582;DHT22;10952;50.836;4.348;2023-04-03T03:18:57;5.30;99.90
21582;DHT22;10952;50.836;4.348;2023-04-03T03:21:22;5.30;99.90
21582;DHT22;10952;50.836;4.348;2023-04-03T03:23:48;5.40;99.90
21582;DHT22;10952;50.836;4.348;2023-04-03T03:26:14;5.30;99.90
21582;DHT22;10952;50.836;4.348;2023-04-03T03:28:40;5.30;99.90
21582;DHT22;10952;50.836;4.348;2023-04-03T03:31:06;5.20;99.90
21582;DHT22;10952;50.836;4.348;2023-04-03T03:33:33;5.20;99.90
21582;DHT22;10952;50.836;4.348;2023-04-03T03:36:00;5.20;99.90
21582;DHT22;10952;50.836;4.348;2023-04-03T03:38:25;5.10;99.90
21582;DHT22;10952;50.836;4.348;2023-04-03T03:40:51;5.20;99.90
21582;DHT22;10952;50.836;4.348;2023-04-03T03:43:17;5.10;99.90
21582;DHT22;10952;50.836;4.348;2023-04-03T03:45:44;5.10;99.90
21582;DHT22;10952;50.836;4.348;2023-04-03T03:48:11;5.20;99.90
21582;DHT22;10952;50.836;4.348;2023-04-03T03:53:11;5.20;99.90
21582;DHT22;10952;50.836;4.348;2023-04-03T03:55:44;5.10;99.90
21582;DHT22;10952;50.836;4.348;2023-04-03T03:58:12;5.30;99.90
21582;DHT22;10952;50.836;4.348;2023-04-03T04:00:44;5.20;99.90
21582;DHT22;10952;50.836;4.348;2023-04-03T04:03:24;5.30;99.90
21582;DHT22;10952;50.836;4.348;2023-04-03T04:06:11;5.10;99.90
21582;DHT22;10952;50.836;4.348;2023-04-03T04:08:37;5.10;99.90
21582;DHT22;10952;50.836;4.348;2023-04-03T04:11:08;5.00;99.90
21582;DHT22;10952;50.836;4.348;2023-04-03T04:13:42;4.90;99.90
21582;DHT22;10952;50.836;4.348;2023-04-03T04:16:08;4.90;99.90
21582;DHT22;10952;50.836;4.348;2023-04-03T04:18:39;5.00;99.90
21582;DHT22;10952;50.836;4.348;2023-04-03T04:21:05;5.00;99.90
21582;DHT22;10952;50.836;4.348;2023-04-03T04:23:34;5.10;99.90
21582;DHT22;10952;50.836;4.348;2023-04-03T04:25:59;5.00;99.90
21582;DHT22;10952;50.836;4.348;2023-04-03T04:28:32;5.10;99.90
21582;DHT22;10952;50.836;4.348;2023-04-03T04:30:59;5.00;99.90
21582;DHT22;10952;50.836;4.348;2023-04-03T04:33:25;5.00;99.90
21582;DHT22;10952;50.836;4.348;2023-04-03T04:35:57;5.00;99.90
21582;DHT22;10952;50.836;4.348;2023-04-03T04:38:24;4.90;99.90
21582;DHT22;10952;50.836;4.348;2023-04-03T04:40:51;4.90;99.90
21582;DHT22;10952;50.836;4.348;2023-04-03T04:43:18;4.80;99.90
21582;DHT22;10952;50.836;4.348;2023-04-03T04:45:45;5.00;99.90
21582;DHT22;10952;50.836;4.348;2023-04-03T04:48:12;4.90;99.90
21582;DHT22;10952;50.836;4.348;2023-04-03T04:50:42;5.00;99.90
21582;DHT22;10952;50.836;4.348;2023-04-03T04:53:10;5.00;99.90
21582;DHT22;10952;50.836;4.348;2023-04-03T04:55:39;5.00;99.90
21582;DHT22;10952;50.836;4.348;2023-04-03T05:01:25;5.00;99.90
21582;DHT22;10952;50.836;4.348;2023-04-03T05:04:03;5.10;99.90
21582;DHT22;10952;50.836;4.348;2023-04-03T05:06:39;5.20;99.90
21582;DHT22;10952;50.836;4.348;2023-04-03T05:09:06;5.00;99.90
21582;DHT22;10952;50.836;4.348;2023-04-03T05:11:34;5.00;99.90
21582;DHT22;10952;50.836;4.348;2023-04-03T05:14:00;5.00;99.90
21582;DHT22;10952;50.836;4.348;2023-04-03T05:16:31;5.10;99.90
21582;DHT22;10952;50.836;4.348;2023-04-03T05:19:26;5.10;99.90
21582;DHT22;10952;50.836;4.348;2023-04-03T05:22:05;5.20;99.90
21582;DHT22;10952;50.836;4.348;2023-04-03T05:28:00;5.20;99.90
21582;DHT22;10952;50.836;4.348;2023-04-03T05:30:56;5.20;99.90
21582;DHT22;10952;50.836;4.348;2023-04-03T05:33:25;5.20;99.90
21582;DHT22;10952;50.836;4.348;2023-04-03T05:36:04;5.00;99.90
21582;DHT22;10952;50.836;4.348;2023-04-03T05:38:44;5.00;99.90
21582;DHT22;10952;50.836;4.348;2023-04-03T05:41:18;5.10;99.90
21582;DHT22;10952;50.836;4.348;2023-04-03T05:43:49;5.10;99.90
21582;DHT22;10952;50.836;4.348;2023-04-03T05:46:28;5.10;99.90
21582;DHT22;10952;50.836;4.348;2023-04-03T05:49:17;5.10;99.90
21582;DHT22;10952;50.836;4.348;2023-04-03T05:54:53;5.20;99.90
21582;DHT22;10952;50.836;4.348;2023-04-03T05:57:40;5.10;99.90
21582;DHT22;10952;50.836;4.348;2023-04-03T06:00:17;5.10;99.90
21582;DHT22;10952;50.836;4.348;2023-04-03T06:02:47;5.20;99.90
21582;DHT22;10952;50.836;4.348;2023-04-03T06:05:14;5.20;99.90
21582;DHT22;10952;50.836;4.348;2023-04-03T06:07:44;5.10;99.90
21582;DHT22;10952;50.836;4.348;2023-04-03T06:10:14;5.20;99.90
21582;DHT22;10952;50.836;4.348;2023-04-03T06:12:54;5.30;99.90
21582;DHT22;10952;50.836;4.348;2023-04-03T06:15:26;5.30;99.90
21582;DHT22;10952;50.836;4.348;2023-04-03T06:18:05;5.40;99.90
21582;DHT22;10952;50.836;4.348;2023-04-03T06:20:32;5.40;99.90
21582;DHT22;10952;50.836;4.348;2023-04-03T06:23:21;5.40;99.90
21582;DHT22;10952;50.836;4.348;2023-04-03T06:25:51;5.50;99.90
21582;DHT22;10952;50.836;4.348;2023-04-03T06:28:29;5.50;99.90
21582;DHT22;10952;50.836;4.348;2023-04-03T06:30:58;5.50;99.90
21582;DHT22;10952;50.836;4.348;2023-04-03T06:36:33;5.50;99.90
21582;DHT22;10952;50.836;4.348;2023-04-03T06:39:05;5.40;99.90
21582;DHT22;10952;50.836;4.348;2023-04-03T06:41:34;5.40;99.90
21582;DHT22;10952;50.836;4.348;2023-04-03T06:44:02;5.40;99.90
21582;DHT22;10952;50.836;4.348;2023-04-03T06:46:34;5.30;99.90
21582;DHT22;10952;50.836;4.348;2023-04-03T06:49:01;5.50;99.90
21582;DHT22;10952;50.836;4.348;2023-04-03T06:51:28;5.50;99.90
21582;DHT22;10952;50.836;4.348;2023-04-03T06:53:58;5.60;99.90
21582;DHT22;10952;50.836;4.348;2023-04-03T06:56:28;5.60;99.90
21582;DHT22;10952;50.836;4.348;2023-04-03T06:58:54;5.50;99.90
21582;DHT22;10952;50.836;4.348;2023-04-03T07:01:28;5.50;99.90
21582;DHT22;10952;50.836;4.348;2023-04-03T07:04:04;5.50;99.90
21582;DHT22;10952;50.836;4.348;2023-04-03T07:06:35;5.50;99.90
21582;DHT22;10952;50.836;4.348;2023-04-03T07:09:02;5.60;99.90
21582;DHT22;10952;50.836;4.348;2023-04-03T07:11:28;5.70;99.90
21582;DHT22;10952;50.836;4.348;2023-04-03T07:14:00;5.70;99.90
21582;DHT22;10952;50.836;4.348;2023-04-03T07:16:28;5.70;99.90
21582;DHT22;10952;50.836;4.348;2023-04-03T07:18:56;5.80;99.90
21582;DHT22;10952;50.836;4.348;2023-04-03T07:21:24;5.80;99.90
21582;DHT22;10952;50.836;4.348;2023-04-03T07:24:13;5.70;99.90
21582;DHT22;10952;50.836;4.348;2023-04-03T07:26:50;5.70;99.90
21582;DHT22;10952;50.836;4.348;2023-04-03T07:29:18;5.70;99.90
21582;DHT22;10952;50.836;4.348;2023-04-03T07:31:48;5.70;99.90
21582;DHT22;10952;50.836;4.348;2023-04-03T07:34:18;5.70;99.90
21582;DHT22;10952;50.836;4.348;2023-04-03T07:36:47;5.70;99.90
21582;DHT22;10952;50.836;4.348;2023-04-03T07:39:14;5.80;99.90
21582;DHT22;10952;50.836;4.348;2023-04-03T07:41:41;5.80;99.90
21582;DHT22;10952;50.836;4.348;2023-04-03T07:44:09;5.80;99.90
21582;DHT22;10952;50.836;4.348;2023-04-03T07:49:45;6.00;99.90
21582;DHT22;10952;50.836;4.348;2023-04-03T07:52:19;6.10;99.90
21582;DHT22;10952;50.836;4.348;2023-04-03T07:54:45;6.10;99.90
21582;DHT22;10952;50.836;4.348;2023-04-03T07:57:14;6.20;99.90
21582;DHT22;10952;50.836;4.348;2023-04-03T07:59:44;6.20;99.90
21582;DHT22;10952;50.836;4.348;2023-04-03T08:02:13;6.20;99.90
21582;DHT22;10952;50.836;4.348;2023-04-03T08:04:53;6.20;99.90
21582;DHT22;10952;50.836;4.348;2023-04-03T08:07:19;6.10;99.90
21582;DHT22;10952;50.836;4.348;2023-04-03T08:09:54;6.30;99.90
21582;DHT22;10952;50.836;4.348;2023-04-03T08:12:23;6.40;99.90
21582;DHT22;10952;50.836;4.348;2023-04-03T08:14:51;6.50;99.90
21582;DHT22;10952;50.836;4.348;2023-04-03T08:17:19;6.50;99.90
21582;DHT22;10952;50.836;4.348;2023-04-03T08:19:46;6.60;99.90
21582;DHT22;10952;50.836;4.348;2023-04-03T08:22:13;6.70;99.90
21582;DHT22;10952;50.836;4.348;2023-04-03T08:24:42;6.80;99.90
21582;DHT22;10952;50.836;4.348;2023-04-03T08:27:14;6.90;99.90
21582;DHT22;10952;50.836;4.348;2023-04-03T08:29:46;7.00;99.90
21582;DHT22;10952;50.836;4.348;2023-04-03T08:32:16;6.90;99.90
21582;DHT22;10952;50.836;4.348;2023-04-03T08:38:00;7.10;99.90
21582;DHT22;10952;50.836;4.348;2023-04-03T08:40:28;7.20;99.90
21582;DHT22;10952;50.836;4.348;2023-04-03T08:46:14;7.20;99.90
21582;DHT22;10952;50.836;4.348;2023-04-03T08:48:50;7.20;99.90
21582;DHT22;10952;50.836;4.348;2023-04-03T08:51:30;7.10;99.90
21582;DHT22;10952;50.836;4.348;2023-04-03T08:54:40;7.10;99.90
21582;DHT22;10952;50.836;4.348;2023-04-03T08:57:20;7.00;99.90
21582;DHT22;10952;50.836;4.348;2023-04-03T09:00:04;7.20;99.90
21582;DHT22;10952;50.836;4.348;2023-04-03T09:02:42;7.40;99.90
21582;DHT22;10952;50.836;4.348;2023-04-03T09:08:12;7.70;99.90
21582;DHT22;10952;50.836;4.348;2023-04-03T09:11:25;7.60;99.90
21582;DHT22;10952;50.836;4.348;2023-04-03T09:14:18;7.70;99.90
21582;DHT22;10952;50.836;4.348;2023-04-03T09:16:51;7.80;99.90
21582;DHT22;10952;50.836;4.348;2023-04-03T09:22:25;7.90;99.90
21582;DHT22;10952;50.836;4.348;2023-04-03T09:25:42;8.00;99.90
21582;DHT22;10952;50.836;4.348;2023-04-03T09:27:54;8.20;99.90
21582;DHT22;10952;50.836;4.348;2023-04-03T09:30:25;8.30;99.90
21582;DHT22;10952;50.836;4.348;2023-04-03T09:32:54;8.40;99.90
21582;DHT22;10952;50.836;4.348;2023-04-03T09:35:30;8.30;99.90
21582;DHT22;10952;50.836;4.348;2023-04-03T09:38:20;8.40;99.90
21582;DHT22;10952;50.836;4.348;2023-04-03T09:41:18;8.40;99.90
21582;DHT22;10952;50.836;4.348;2023-04-03T09:44:01;8.60;99.90
21582;DHT22;10952;50.836;4.348;2023-04-03T09:46:35;8.60;99.90
21582;DHT22;10952;50.836;4.348;2023-04-03T09:49:04;8.60;99.90
21582;DHT22;10952;50.836;4.348;2023-04-03T09:51:32;8.40;99.90
21582;DHT22;10952;50.836;4.348;2023-04-03T09:53:58;8.30;99.90
21582;DHT22;10952;50.836;4.348;2023-04-03T09:56:30;8.40;99.90
21582;DHT22;10952;50.836;4.348;2023-04-03T09:59:15;8.60;99.90
21582;DHT22;10952;50.836;4.348;2023-04-03T10:02:03;8.40;99.90
21582;DHT22;10952;50.836;4.348;2023-04-03T10:04:45;8.70;99.90
21582;DHT22;10952;50.836;4.348;2023-04-03T10:07:39;8.80;99.90
21582;DHT22;10952;50.836;4.348;2023-04-03T10:10:22;8.90;99.90
21582;DHT22;10952;50.836;4.348;2023-04-03T10:13:18;9.00;99.90
21582;DHT22;10952;50.836;4.348;2023-04-03T10:16:13;9.00;99.90
21582;DHT22;10952;50.836;4.348;2023-04-03T10:19:07;9.10;99.90
21582;DHT22;10952;50.836;4.348;2023-04-03T10:28:01;9.20;99.90
21582;DHT22;10952;50.836;4.348;2023-04-03T10:30:50;9.30;99.90
21582;DHT22;10952;50.836;4.348;2023-04-03T10:51:48;9.80;99.90
21582;DHT22;10952;50.836;4.348;2023-04-03T10:55:13;10.70;99.90
21582;DHT22;10952;50.836;4.348;2023-04-03T10:58:02;12.90;99.90
21582;DHT22;10952;50.836;4.348;2023-04-03T11:00:43;14.70;99.90
21582;DHT22;10952;50.836;4.348;2023-04-03T11:03:24;15.60;98.00
21582;DHT22;10952;50.836;4.348;2023-04-03T11:05:55;17.50;95.10
21582;DHT22;10952;50.836;4.348;2023-04-03T11:11:20;18.70;85.70
21582;DHT22;10952;50.836;4.348;2023-04-03T11:16:59;18.90;80.60
21582;DHT22;10952;50.836;4.348;2023-04-03T11:22:23;21.10;75.70
21582;DHT22;10952;50.836;4.348;2023-04-03T11:27:56;22.00;71.40
21582;DHT22;10952;50.836;4.348;2023-04-03T11:30:28;23.10;69.10
21582;DHT22;10952;50.836;4.348;2023-04-03T11:36:11;24.00;64.60
21582;DHT22;10952;50.836;4.348;2023-04-03T11:38:43;24.30;64.50
21582;DHT22;10952;50.836;4.348;2023-04-03T11:41:14;24.20;63.20
21582;DHT22;10952;50.836;4.348;2023-04-03T11:43:57;24.00;62.10
21582;DHT22;10952;50.836;4.348;2023-04-03T11:46:54;21.80;65.70
21582;DHT22;10952;50.836;4.348;2023-04-03T11:50:00;21.80;65.80
21582;DHT22;10952;50.836;4.348;2023-04-03T11:56:03;21.20;64.80
21582;DHT22;10952;50.836;4.348;2023-04-03T12:01:54;21.60;66.20
21582;DHT22;10952;50.836;4.348;2023-04-03T12:04:24;22.40;65.10
21582;DHT22;10952;50.836;4.348;2023-04-03T12:07:02;22.50;63.00
21582;DHT22;10952;50.836;4.348;2023-04-03T12:09:56;22.10;58.90
21582;DHT22;10952;50.836;4.348;2023-04-03T12:12:33;20.40;63.40
21582;DHT22;10952;50.836;4.348;2023-04-03T12:21:05;22.30;61.50
21582;DHT22;10952;50.836;4.348;2023-04-03T12:23:35;21.10;59.80
21582;DHT22;10952;50.836;4.348;2023-04-03T12:26:22;19.90;62.30
21582;DHT22;10952;50.836;4.348;2023-04-03T12:28:51;20.60;61.90
21582;DHT22;10952;50.836;4.348;2023-04-03T12:31:22;20.90;60.30
21582;DHT22;10952;50.836;4.348;2023-04-03T12:34:07;20.00;60.00
21582;DHT22;10952;50.836;4.348;2023-04-03T12:36:46;20.10;59.60
21582;DHT22;10952;50.836;4.348;2023-04-03T12:45:25;17.20;60.80
21582;DHT22;10952;50.836;4.348;2023-04-03T12:48:02;17.00;61.60
21582;DHT22;10952;50.836;4.348;2023-04-03T12:50:31;17.70;62.00
21582;DHT22;10952;50.836;4.348;2023-04-03T12:53:36;17.70;61.20
21582;DHT22;10952;50.836;4.348;2023-04-03T12:56:32;18.20;61.70
21582;DHT22;10952;50.836;4.348;2023-04-03T12:59:27;17.60;61.40
21582;DHT22;10952;50.836;4.348;2023-04-03T13:02:03;17.20;61.80
21582;DHT22;10952;50.836;4.348;2023-04-03T13:04:38;17.10;61.20
21582;DHT22;10952;50.836;4.348;2023-04-03T13:07:05;17.00;62.20
21582;DHT22;10952;50.836;4.348;2023-04-03T13:09:32;16.80;62.50
21582;DHT22;10952;50.836;4.348;2023-04-03T13:12:10;17.00;62.90
21582;DHT22;10952;50.836;4.348;2023-04-03T13:14:56;17.20;61.60
21582;DHT22;10952;50.836;4.348;2023-04-03T13:17:30;16.50;63.20
21582;DHT22;10952;50.836;4.348;2023-04-03T13:20:31;16.00;63.50
21582;DHT22;10952;50.836;4.348;2023-04-03T13:23:05;15.50;64.20
21582;DHT22;10952;50.836;4.348;2023-04-03T13:25:37;15.00;65.50
21582;DHT22;10952;50.836;4.348;2023-04-03T13:28:22;14.50;65.00
21582;DHT22;10952;50.836;4.348;2023-04-03T13:31:26;14.40;65.10
21582;DHT22;10952;50.836;4.348;2023-04-03T13:34:17;14.10;64.50
21582;DHT22;10952;50.836;4.348;2023-04-03T13:39:28;13.40;65.20
21582;DHT22;10952;50.836;4.348;2023-04-03T13:42:01;13.40;66.10
21582;DHT22;10952;50.836;4.348;2023-04-03T13:47:20;13.20;65.40
21582;DHT22;10952;50.836;4.348;2023-04-03T13:53:00;13.00;65.70
21582;DHT22;10952;50.836;4.348;2023-04-03T13:55:37;13.30;67.50
21582;DHT22;10952;50.836;4.348;2023-04-03T13:58:29;13.30;67.00
21582;DHT22;10952;50.836;4.348;2023-04-03T14:01:01;13.20;67.50
21582;DHT22;10952;50.836;4.348;2023-04-03T14:03:52;13.20;68.60
21582;DHT22;10952;50.836;4.348;2023-04-03T14:06:18;13.20;67.90
21582;DHT22;10952;50.836;4.348;2023-04-03T14:08:54;13.10;66.90
21582;DHT22;10952;50.836;4.348;2023-04-03T14:11:30;13.30;68.00
21582;DHT22;10952;50.836;4.348;2023-04-03T14:14:19;13.60;67.30
21582;DHT22;10952;50.836;4.348;2023-04-03T14:16:59;13.70;68.50
21582;DHT22;10952;50.836;4.348;2023-04-03T14:19:31;13.70;67.90
21582;DHT22;10952;50.836;4.348;2023-04-03T14:22:10;13.60;68.00
21582;DHT22;10952;50.836;4.348;2023-04-03T14:24:45;13.40;67.50
21582;DHT22;10952;50.836;4.348;2023-04-03T14:27:35;13.10;67.50
21582;DHT22;10952;50.836;4.348;2023-04-03T14:30:02;13.20;68.80
21582;DHT22;10952;50.836;4.348;2023-04-03T14:32:29;13.40;66.70
21582;DHT22;10952;50.836;4.348;2023-04-03T14:34:55;13.20;66.90
21582;DHT22;10952;50.836;4.348;2023-04-03T14:37:28;12.80;68.20
21582;DHT22;10952;50.836;4.348;2023-04-03T14:39:57;12.90;69.70
21582;DHT22;10952;50.836;4.348;2023-04-03T14:42:27;13.10;68.20
21582;DHT22;10952;50.836;4.348;2023-04-03T14:44:54;13.20;66.80
21582;DHT22;10952;50.836;4.348;2023-04-03T14:47:24;13.40;67.10
21582;DHT22;10952;50.836;4.348;2023-04-03T14:49:53;13.40;67.50
21582;DHT22;10952;50.836;4.348;2023-04-03T14:52:23;13.30;68.20
21582;DHT22;10952;50.836;4.348;2023-04-03T14:54:51;13.50;68.20
21582;DHT22;10952;50.836;4.348;2023-04-03T14:57:23;13.50;68.00
21582;DHT22;10952;50.836;4.348;2023-04-03T14:59:49;13.50;67.40
21582;DHT22;10952;50.836;4.348;2023-04-03T15:02:38;13.30;68.20
21582;DHT22;10952;50.836;4.348;2023-04-03T15:05:08;13.40;68.60
21582;DHT22;10952;50.836;4.348;2023-04-03T15:07:47;13.20;68.80
21582;DHT22;10952;50.836;4.348;2023-04-03T15:10:42;13.40;69.10
21582;DHT22;10952;50.836;4.348;2023-04-03T15:13:12;13.50;69.20
21582;DHT22;10952;50.836;4.348;2023-04-03T15:16:02;13.40;67.80
21582;DHT22;10952;50.836;4.348;2023-04-03T15:18:45;13.30;67.80
21582;DHT22;10952;50.836;4.348;2023-04-03T15:21:11;13.50;67.10
21582;DHT22;10952;50.836;4.348;2023-04-03T15:23:39;13.50;67.20
21582;DHT22;10952;50.836;4.348;2023-04-03T15:26:07;13.60;67.20
21582;DHT22;10952;50.836;4.348;2023-04-03T15:28:44;13.70;66.40
21582;DHT22;10952;50.836;4.348;2023-04-03T15:31:23;13.70;67.30
21582;DHT22;10952;50.836;4.348;2023-04-03T15:34:03;13.80;67.60
21582;DHT22;10952;50.836;4.348;2023-04-03T15:36:40;14.00;65.80
21582;DHT22;10952;50.836;4.348;2023-04-03T15:39:27;14.00;65.70
21582;DHT22;10952;50.836;4.348;2023-04-03T15:41:54;14.00;65.40
21582;DHT22;10952;50.836;4.348;2023-04-03T15:44:25;13.80;65.40
21582;DHT22;10952;50.836;4.348;2023-04-03T15:47:27;13.70;65.90
21582;DHT22;10952;50.836;4.348;2023-04-03T15:49:59;13.80;66.40
21582;DHT22;10952;50.836;4.348;2023-04-03T15:52:54;13.80;66.00
21582;DHT22;10952;50.836;4.348;2023-04-03T15:55:53;13.60;65.60
21582;DHT22;10952;50.836;4.348;2023-04-03T15:58:19;13.30;65.70
21582;DHT22;10952;50.836;4.348;2023-04-03T16:00:47;13.10;67.30
21582;DHT22;10952;50.836;4.348;2023-04-03T16:03:19;13.20;67.60
21582;DHT22;10952;50.836;4.348;2023-04-03T16:06:02;13.50;67.80
21582;DHT22;10952;50.836;4.348;2023-04-03T16:08:47;13.80;68.20
21582;DHT22;10952;50.836;4.348;2023-04-03T16:11:39;14.10;68.20
21582;DHT22;10952;50.836;4.348;2023-04-03T16:14:07;14.30;68.30
21582;DHT22;10952;50.836;4.348;2023-04-03T16:16:33;14.40;67.50
21582;DHT22;10952;50.836;4.348;2023-04-03T16:19:05;15.00;66.30
21582;DHT22;10952;50.836;4.348;2023-04-03T16:21:46;15.30;65.90
21582;DHT22;10952;50.836;4.348;2023-04-03T16:24:15;15.40;65.80
21582;DHT22;10952;50.836;4.348;2023-04-03T16:26:49;15.30;66.30
21582;DHT22;10952;50.836;4.348;2023-04-03T16:29:43;14.90;67.20
21582;DHT22;10952;50.836;4.348;2023-04-03T16:32:42;15.00;68.30
21582;DHT22;10952;50.836;4.348;2023-04-03T16:35:17;14.50;68.70
21582;DHT22;10952;50.836;4.348;2023-04-03T16:37:49;14.60;69.40
21582;DHT22;10952;50.836;4.348;2023-04-03T16:40:49;14.20;69.00
21582;DHT22;10952;50.836;4.348;2023-04-03T16:43:19;13.80;69.70
21582;DHT22;10952;50.836;4.348;2023-04-03T16:45:45;13.60;71.00
21582;DHT22;10952;50.836;4.348;2023-04-03T16:48:22;13.80;71.20
21582;DHT22;10952;50.836;4.348;2023-04-03T16:50:52;14.10;71.60
21582;DHT22;10952;50.836;4.348;2023-04-03T16:53:32;14.20;71.50
21582;DHT22;10952;50.836;4.348;2023-04-03T16:58:50;14.20;71.70
21582;DHT22;10952;50.836;4.348;2023-04-03T17:01:21;14.80;71.20
21582;DHT22;10952;50.836;4.348;2023-04-03T17:06:27;15.50;70.00
21582;DHT22;10952;50.836;4.348;2023-04-03T17:08:54;16.10;68.60
21582;DHT22;10952;50.836;4.348;2023-04-03T17:11:33;15.90;68.90
21582;DHT22;10952;50.836;4.348;2023-04-03T17:17:24;14.30;70.90
21582;DHT22;10952;50.836;4.348;2023-04-03T17:23:13;13.40;73.80
21582;DHT22;10952;50.836;4.348;2023-04-03T17:29:03;13.50;74.10
21582;DHT22;10952;50.836;4.348;2023-04-03T17:31:45;13.30;74.30
21582;DHT22;10952;50.836;4.348;2023-04-03T17:34:15;13.20;74.70
21582;DHT22;10952;50.836;4.348;2023-04-03T17:36:41;13.30;74.30
21582;DHT22;10952;50.836;4.348;2023-04-03T17:39:07;13.20;74.40
21582;DHT22;10952;50.836;4.348;2023-04-03T17:41:33;13.10;74.40
21582;DHT22;10952;50.836;4.348;2023-04-03T17:43:58;12.80;75.50
21582;DHT22;10952;50.836;4.348;2023-04-03T17:46:25;12.50;76.10
21582;DHT22;10952;50.836;4.348;2023-04-03T17:48:51;12.30;77.10
21582;DHT22;10952;50.836;4.348;2023-04-03T17:51:22;12.10;77.20
21582;DHT22;10952;50.836;4.348;2023-04-03T17:53:48;11.80;78.10
21582;DHT22;10952;50.836;4.348;2023-04-03T17:56:20;11.70;78.60
21582;DHT22;10952;50.836;4.348;2023-04-03T17:58:47;11.90;78.80
21582;DHT22;10952;50.836;4.348;2023-04-03T18:01:19;12.00;78.70
21582;DHT22;10952;50.836;4.348;2023-04-03T18:03:46;12.00;79.00
21582;DHT22;10952;50.836;4.348;2023-04-03T18:06:17;11.90;79.10
21582;DHT22;10952;50.836;4.348;2023-04-03T18:08:48;11.70;80.00
21582;DHT22;10952;50.836;4.348;2023-04-03T18:11:15;11.60;81.00
21582;DHT22;10952;50.836;4.348;2023-04-03T18:13:43;11.70;81.90
21582;DHT22;10952;50.836;4.348;2023-04-03T18:16:10;11.50;81.50
21582;DHT22;10952;50.836;4.348;2023-04-03T18:18:37;11.40;82.60